sensor_id;sensor_type;location;lat;lon;timestamp;pressure;altitude;pressure_sealevel;temperature;humidity
71764;BME280;59602;52.142;5.408;2023-02-26T00:00:01;102063.00;;;2.23;75.27
71764;BME280;59602;52.142;5.408;2023-02-26T00:02:29;102068.06;;;2.25;74.66
71764;BME280;59602;52.142;5.408;2023-02-26T00:04:57;102068.06;;;2.25;74.51
71764;BME280;59602;52.142;5.408;2023-02-26T00:07:23;102075.03;;;2.26;73.88
71764;BME280;59602;52.142;5.408;2023-02-26T00:09:55;102072.88;;;2.28;73.45
71764;BME280;59602;52.142;5.408;2023-02-26T00:12:21;102074.75;;;2.27;74.37
71764;BME280;59602;52.142;5.408;2023-02-26T00:14:49;102078.81;;;2.25;74.00
71764;BME280;59602;52.142;5.408;2023-02-26T00:19:57;102086.06;;;2.24;72.50
71764;BME280;59602;52.142;5.408;2023-02-26T00:22:24;102099.19;;;2.26;71.58
71764;BME280;59602;52.142;5.408;2023-02-26T00:24:51;102101.38;;;2.24;71.47
71764;BME280;59602;52.142;5.408;2023-02-26T00:27:19;102111.22;;;2.28;70.77
71764;BME280;59602;52.142;5.408;2023-02-26T00:29:46;102114.19;;;2.27;69.70
71764;BME280;59602;52.142;5.408;2023-02-26T00:32:13;102120.31;;;2.33;69.83
71764;BME280;59602;52.142;5.408;2023-02-26T00:34:40;102118.41;;;2.33;69.92
71764;BME280;59602;52.142;5.408;2023-02-26T00:37:26;102128.63;;;2.31;69.59
71764;BME280;59602;52.142;5.408;2023-02-26T00:40:04;102128.34;;;2.33;69.61
71764;BME280;59602;52.142;5.408;2023-02-26T00:42:34;102137.19;;;2.33;69.23
71764;BME280;59602;52.142;5.408;2023-02-26T00:45:03;102141.97;;;2.36;69.32
71764;BME280;59602;52.142;5.408;2023-02-26T00:50:18;102137.97;;;2.34;69.44
71764;BME280;59602;52.142;5.408;2023-02-26T00:52:59;102136.69;;;2.31;69.10
71764;BME280;59602;52.142;5.408;2023-02-26T00:55:29;102149.00;;;2.32;70.01
71764;BME280;59602;52.142;5.408;2023-02-26T00:57:55;102150.09;;;2.31;69.53
71764;BME280;59602;52.142;5.408;2023-02-26T01:00:23;102152.00;;;2.31;69.34
71764;BME280;59602;52.142;5.408;2023-02-26T01:02:50;102146.63;;;2.31;69.76
71764;BME280;59602;52.142;5.408;2023-02-26T01:05:17;102137.28;;;2.28;69.84
71764;BME280;59602;52.142;5.408;2023-02-26T01:07:53;102144.31;;;2.24;69.34
71764;BME280;59602;52.142;5.408;2023-02-26T01:10:24;102139.72;;;2.24;69.00
71764;BME280;59602;52.142;5.408;2023-02-26T01:12:51;102149.16;;;2.22;69.12
71764;BME280;59602;52.142;5.408;2023-02-26T01:15:18;102144.59;;;2.22;69.31
71764;BME280;59602;52.142;5.408;2023-02-26T01:17:46;102144.88;;;2.21;68.77
71764;BME280;59602;52.142;5.408;2023-02-26T01:25:22;102164.47;;;2.21;69.67
71764;BME280;59602;52.142;5.408;2023-02-26T01:27:50;102163.97;;;2.19;69.38
71764;BME280;59602;52.142;5.408;2023-02-26T01:30:18;102167.72;;;2.18;69.58
71764;BME280;59602;52.142;5.408;2023-02-26T01:32:53;102168.31;;;2.15;68.86
71764;BME280;59602;52.142;5.408;2023-02-26T01:35:41;102167.78;;;2.13;69.05
71764;BME280;59602;52.142;5.408;2023-02-26T01:38:16;102168.88;;;2.12;68.89
71764;BME280;59602;52.142;5.408;2023-02-26T01:43:16;102173.75;;;2.10;68.66
71764;BME280;59602;52.142;5.408;2023-02-26T01:46:10;102168.88;;;2.12;68.81
71764;BME280;59602;52.142;5.408;2023-02-26T01:48:48;102175.09;;;2.07;69.38
71764;BME280;59602;52.142;5.408;2023-02-26T01:51:16;102178.63;;;2.03;69.46
71764;BME280;59602;52.142;5.408;2023-02-26T01:53:43;102180.81;;;2.01;69.30
71764;BME280;59602;52.142;5.408;2023-02-26T01:56:18;102183.78;;;1.99;69.31
71764;BME280;59602;52.142;5.408;2023-02-26T01:58:46;102184.34;;;1.96;68.96
71764;BME280;59602;52.142;5.408;2023-02-26T02:01:14;102192.13;;;1.98;69.08
71764;BME280;59602;52.142;5.408;2023-02-26T02:03:42;102185.44;;;1.95;68.96
71764;BME280;59602;52.142;5.408;2023-02-26T02:06:15;102192.72;;;1.95;68.92
71764;BME280;59602;52.142;5.408;2023-02-26T02:08:43;102196.75;;;1.92;68.35
71764;BME280;59602;52.142;5.408;2023-02-26T02:11:11;102190.38;;;1.88;68.53
71764;BME280;59602;52.142;5.408;2023-02-26T02:16:41;102197.66;;;1.82;68.28
71764;BME280;59602;52.142;5.408;2023-02-26T02:27:22;102211.94;;;1.78;68.21
71764;BME280;59602;52.142;5.408;2023-02-26T02:30:06;102214.09;;;1.76;68.39
71764;BME280;59602;52.142;5.408;2023-02-26T02:32:50;102223.22;;;1.75;67.88
71764;BME280;59602;52.142;5.408;2023-02-26T02:35:23;102220.03;;;1.73;67.04
71764;BME280;59602;52.142;5.408;2023-02-26T02:37:59;102225.69;;;1.71;67.29
71764;BME280;59602;52.142;5.408;2023-02-26T02:40:31;102224.09;;;1.70;66.85
71764;BME280;59602;52.142;5.408;2023-02-26T02:43:03;102228.94;;;1.68;67.40
71764;BME280;59602;52.142;5.408;2023-02-26T02:45:40;102229.47;;;1.65;66.95
71764;BME280;59602;52.142;5.408;2023-02-26T02:48:16;102232.47;;;1.63;67.04
71764;BME280;59602;52.142;5.408;2023-02-26T02:50:50;102238.69;;;1.59;66.69
71764;BME280;59602;52.142;5.408;2023-02-26T02:53:29;102239.75;;;1.58;66.58
71764;BME280;59602;52.142;5.408;2023-02-26T02:56:04;102249.69;;;1.57;66.70
71764;BME280;59602;52.142;5.408;2023-02-26T02:58:38;102235.25;;;1.53;66.65
71764;BME280;59602;52.142;5.408;2023-02-26T03:01:06;102247.06;;;1.52;66.66
71764;BME280;59602;52.142;5.408;2023-02-26T03:03:38;102251.09;;;1.50;66.67
71764;BME280;59602;52.142;5.408;2023-02-26T03:06:08;102255.13;;;1.47;66.41
71764;BME280;59602;52.142;5.408;2023-02-26T03:08:39;102251.66;;;1.47;66.22
71764;BME280;59602;52.142;5.408;2023-02-26T03:11:07;102254.38;;;1.41;66.40
71764;BME280;59602;52.142;5.408;2023-02-26T03:13:36;102262.44;;;1.41;66.24
71764;BME280;59602;52.142;5.408;2023-02-26T03:16:10;102259.75;;;1.41;66.57
71764;BME280;59602;52.142;5.408;2023-02-26T03:21:20;102262.94;;;1.43;66.20
71764;BME280;59602;52.142;5.408;2023-02-26T03:26:31;102263.78;;;1.39;65.56
71764;BME280;59602;52.142;5.408;2023-02-26T03:29:12;102272.09;;;1.37;66.11
71764;BME280;59602;52.142;5.408;2023-02-26T03:31:52;102275.06;;;1.36;65.71
71764;BME280;59602;52.142;5.408;2023-02-26T03:34:27;102271.63;;;1.30;66.19
71764;BME280;59602;52.142;5.408;2023-02-26T03:37:00;102271.63;;;1.30;65.90
71764;BME280;59602;52.142;5.408;2023-02-26T03:39:32;102286.63;;;1.31;65.52
71764;BME280;59602;52.142;5.408;2023-02-26T03:42:08;102284.50;;;1.28;65.31
71764;BME280;59602;52.142;5.408;2023-02-26T03:44:41;102288.78;;;1.29;66.08
71764;BME280;59602;52.142;5.408;2023-02-26T03:47:11;102285.56;;;1.27;65.91
71764;BME280;59602;52.142;5.408;2023-02-26T03:49:43;102288.03;;;1.23;65.93
71764;BME280;59602;52.142;5.408;2023-02-26T03:52:11;102299.00;;;1.22;65.67
71764;BME280;59602;52.142;5.408;2023-02-26T03:54:44;102301.69;;;1.22;66.02
71764;BME280;59602;52.142;5.408;2023-02-26T03:57:12;102308.38;;;1.24;66.39
71764;BME280;59602;52.142;5.408;2023-02-26T03:59:38;102298.50;;;1.20;66.06
71764;BME280;59602;52.142;5.408;2023-02-26T04:04:41;102311.66;;;1.16;66.31
71764;BME280;59602;52.142;5.408;2023-02-26T04:07:12;102312.44;;;1.17;66.19
71764;BME280;59602;52.142;5.408;2023-02-26T04:09:42;102309.78;;;1.17;66.70
71764;BME280;59602;52.142;5.408;2023-02-26T04:12:08;102311.41;;;1.13;67.18
71764;BME280;59602;52.142;5.408;2023-02-26T04:14:36;102315.72;;;1.09;67.31
71764;BME280;59602;52.142;5.408;2023-02-26T04:17:03;102316.28;;;1.06;66.79
71764;BME280;59602;52.142;5.408;2023-02-26T04:19:30;102331.25;;;1.07;66.98
71764;BME280;59602;52.142;5.408;2023-02-26T04:21:57;102338.50;;;1.06;66.66
71764;BME280;59602;52.142;5.408;2023-02-26T04:24:23;102336.91;;;1.05;67.10
71764;BME280;59602;52.142;5.408;2023-02-26T04:26:50;102337.69;;;1.06;66.73
71764;BME280;59602;52.142;5.408;2023-02-26T04:29:16;102345.22;;;1.03;66.41
71764;BME280;59602;52.142;5.408;2023-02-26T04:31:44;102336.38;;;1.03;66.51
71764;BME280;59602;52.142;5.408;2023-02-26T04:34:11;102343.31;;;1.04;66.72
71764;BME280;59602;52.142;5.408;2023-02-26T04:36:37;102347.88;;;1.03;66.88
71764;BME280;59602;52.142;5.408;2023-02-26T04:39:05;102348.94;;;1.02;67.07
71764;BME280;59602;52.142;5.408;2023-02-26T04:41:31;102359.97;;;1.01;67.06
71764;BME280;59602;52.142;5.408;2023-02-26T04:43:58;102357.28;;;0.96;67.25
71764;BME280;59602;52.142;5.408;2023-02-26T04:46:25;102362.94;;;0.94;66.64
71764;BME280;59602;52.142;5.408;2023-02-26T04:48:53;102355.44;;;0.91;67.05
71764;BME280;59602;52.142;5.408;2023-02-26T04:51:20;102367.25;;;0.90;66.76
71764;BME280;59602;52.142;5.408;2023-02-26T04:53:47;102369.38;;;0.88;66.42
71764;BME280;59602;52.142;5.408;2023-02-26T04:56:14;102375.00;;;0.87;66.61
71764;BME280;59602;52.142;5.408;2023-02-26T04:58:42;102376.91;;;0.86;67.18
71764;BME280;59602;52.142;5.408;2023-02-26T05:01:08;102372.63;;;0.85;67.37
71764;BME280;59602;52.142;5.408;2023-02-26T05:03:35;102378.25;;;0.83;67.02
71764;BME280;59602;52.142;5.408;2023-02-26T05:06:02;102380.13;;;0.83;67.31
71764;BME280;59602;52.142;5.408;2023-02-26T05:08:29;102390.31;;;0.81;66.67
71764;BME280;59602;52.142;5.408;2023-02-26T05:10:56;102394.34;;;0.78;66.52
71764;BME280;59602;52.142;5.408;2023-02-26T05:13:23;102396.19;;;0.78;66.86
71764;BME280;59602;52.142;5.408;2023-02-26T05:15:52;102398.34;;;0.76;66.32
71764;BME280;59602;52.142;5.408;2023-02-26T05:18:19;102404.00;;;0.74;66.28
71764;BME280;59602;52.142;5.408;2023-02-26T05:20:51;102405.88;;;0.74;67.12
71764;BME280;59602;52.142;5.408;2023-02-26T05:23:17;102410.16;;;0.70;67.76
71764;BME280;59602;52.142;5.408;2023-02-26T05:25:45;102409.09;;;0.66;68.22
71764;BME280;59602;52.142;5.408;2023-02-26T05:28:12;102421.41;;;0.67;68.06
71764;BME280;59602;52.142;5.408;2023-02-26T05:30:39;102421.97;;;0.64;68.43
71764;BME280;59602;52.142;5.408;2023-02-26T05:33:06;102422.50;;;0.60;68.58
71764;BME280;59602;52.142;5.408;2023-02-26T05:35:33;102421.97;;;0.58;68.09
71764;BME280;59602;52.142;5.408;2023-02-26T05:38:00;102426.81;;;0.56;68.88
71764;BME280;59602;52.142;5.408;2023-02-26T05:40:26;102421.97;;;0.58;68.86
71764;BME280;59602;52.142;5.408;2023-02-26T05:42:53;102426.50;;;0.58;68.67
71764;BME280;59602;52.142;5.408;2023-02-26T05:45:19;102443.66;;;0.57;68.09
71764;BME280;59602;52.142;5.408;2023-02-26T05:47:47;102447.69;;;0.54;67.67
71764;BME280;59602;52.142;5.408;2023-02-26T05:50:13;102444.50;;;0.47;67.92
71764;BME280;59602;52.142;5.408;2023-02-26T05:52:40;102447.16;;;0.47;68.87
71764;BME280;59602;52.142;5.408;2023-02-26T05:55:07;102450.09;;;0.46;68.42
71764;BME280;59602;52.142;5.408;2023-02-26T05:57:34;102460.81;;;0.46;69.05
71764;BME280;59602;52.142;5.408;2023-02-26T06:00:04;102469.63;;;0.46;68.93
71764;BME280;59602;52.142;5.408;2023-02-26T06:02:31;102465.63;;;0.44;68.71
71764;BME280;59602;52.142;5.408;2023-02-26T06:04:57;102465.63;;;0.44;69.01
71764;BME280;59602;52.142;5.408;2023-02-26T06:07:24;102466.16;;;0.40;69.25
71764;BME280;59602;52.142;5.408;2023-02-26T06:09:51;102482.47;;;0.39;69.27
71764;BME280;59602;52.142;5.408;2023-02-26T06:12:18;102481.16;;;0.36;69.97
71764;BME280;59602;52.142;5.408;2023-02-26T06:14:45;102476.59;;;0.32;70.33
71764;BME280;59602;52.142;5.408;2023-02-26T06:17:12;102479.28;;;0.32;69.80
71764;BME280;59602;52.142;5.408;2023-02-26T06:19:38;102488.09;;;0.32;69.95
71764;BME280;59602;52.142;5.408;2023-02-26T06:22:05;102489.72;;;0.28;69.91
71764;BME280;59602;52.142;5.408;2023-02-26T06:24:32;102489.72;;;0.28;69.71
71764;BME280;59602;52.142;5.408;2023-02-26T06:26:59;102499.06;;;0.26;69.30
71764;BME280;59602;52.142;5.408;2023-02-26T06:29:25;102496.94;;;0.28;69.19
71764;BME280;59602;52.142;5.408;2023-02-26T06:31:52;102496.94;;;0.28;68.84
71764;BME280;59602;52.142;5.408;2023-02-26T06:34:19;102497.47;;;0.30;68.82
71764;BME280;59602;52.142;5.408;2023-02-26T06:36:46;102505.22;;;0.31;68.72
71764;BME280;59602;52.142;5.408;2023-02-26T06:39:13;102506.03;;;0.32;68.63
71764;BME280;59602;52.142;5.408;2023-02-26T06:41:41;102507.09;;;0.31;68.78
71764;BME280;59602;52.142;5.408;2023-02-26T06:44:09;102515.91;;;0.31;68.67
71764;BME280;59602;52.142;5.408;2023-02-26T06:46:35;102521.25;;;0.31;68.60
71764;BME280;59602;52.142;5.408;2023-02-26T06:49:02;102524.22;;;0.35;68.43
71764;BME280;59602;52.142;5.408;2023-02-26T06:51:28;102530.91;;;0.37;68.39
71764;BME280;59602;52.142;5.408;2023-02-26T06:53:56;102525.28;;;0.39;68.55
71764;BME280;59602;52.142;5.408;2023-02-26T06:56:23;102529.56;;;0.40;68.27
71764;BME280;59602;52.142;5.408;2023-02-26T06:58:50;102543.47;;;0.42;68.47
71764;BME280;59602;52.142;5.408;2023-02-26T07:01:16;102546.41;;;0.46;68.06
71764;BME280;59602;52.142;5.408;2023-02-26T07:03:44;102546.97;;;0.48;68.76
71764;BME280;59602;52.142;5.408;2023-02-26T07:06:12;102554.72;;;0.49;68.59
71764;BME280;59602;52.142;5.408;2023-02-26T07:08:52;102553.66;;;0.50;68.28
71764;BME280;59602;52.142;5.408;2023-02-26T07:11:19;102560.59;;;0.51;68.45
71764;BME280;59602;52.142;5.408;2023-02-26T07:13:46;102560.34;;;0.53;68.55
71764;BME280;59602;52.142;5.408;2023-02-26T07:16:14;102572.91;;;0.57;68.17
71764;BME280;59602;52.142;5.408;2023-02-26T07:18:40;102575.31;;;0.64;68.27
71764;BME280;59602;52.142;5.408;2023-02-26T07:21:07;102577.72;;;0.66;68.18
71764;BME280;59602;52.142;5.408;2023-02-26T07:23:34;102583.88;;;0.71;68.27
71764;BME280;59602;52.142;5.408;2023-02-26T07:26:01;102579.06;;;0.73;68.03
71764;BME280;59602;52.142;5.408;2023-02-26T07:28:29;102589.78;;;0.78;68.56
71764;BME280;59602;52.142;5.408;2023-02-26T07:30:56;102590.03;;;0.82;68.06
71764;BME280;59602;52.142;5.408;2023-02-26T07:33:23;102595.09;;;0.89;67.96
71764;BME280;59602;52.142;5.408;2023-02-26T07:35:51;102591.38;;;0.90;68.03
71764;BME280;59602;52.142;5.408;2023-02-26T07:38:18;102591.88;;;0.97;67.85
71764;BME280;59602;52.142;5.408;2023-02-26T07:40:45;102597.47;;;1.00;67.59
71764;BME280;59602;52.142;5.408;2023-02-26T07:43:12;102605.25;;;1.07;67.62
71764;BME280;59602;52.142;5.408;2023-02-26T07:45:39;102604.72;;;1.10;67.46
71764;BME280;59602;52.142;5.408;2023-02-26T07:48:06;102605.50;;;1.16;67.50
71764;BME280;59602;52.142;5.408;2023-02-26T07:50:33;102603.88;;;1.20;67.49
71764;BME280;59602;52.142;5.408;2023-02-26T07:53:00;102611.91;;;1.25;67.02
71764;BME280;59602;52.142;5.408;2023-02-26T07:55:26;102612.16;;;1.29;66.59
71764;BME280;59602;52.142;5.408;2023-02-26T07:57:54;102614.03;;;1.33;66.94
71764;BME280;59602;52.142;5.408;2023-02-26T08:00:21;102619.09;;;1.40;67.35
71764;BME280;59602;52.142;5.408;2023-02-26T08:02:48;102617.75;;;1.42;67.11
71764;BME280;59602;52.142;5.408;2023-02-26T08:05:14;102624.72;;;1.49;67.00
71764;BME280;59602;52.142;5.408;2023-02-26T08:07:41;102621.47;;;1.52;67.06
71764;BME280;59602;52.142;5.408;2023-02-26T08:10:08;102632.47;;;1.55;66.74
71764;BME280;59602;52.142;5.408;2023-02-26T08:12:35;102630.59;;;1.61;67.01
71764;BME280;59602;52.142;5.408;2023-02-26T08:15:03;102635.34;;;1.69;66.95
71764;BME280;59602;52.142;5.408;2023-02-26T08:17:30;102648.22;;;1.72;67.01
71764;BME280;59602;52.142;5.408;2023-02-26T08:19:57;102645.53;;;1.77;66.53
71764;BME280;59602;52.142;5.408;2023-02-26T08:22:24;102657.31;;;1.81;66.64
71764;BME280;59602;52.142;5.408;2023-02-26T08:24:50;102656.22;;;1.82;66.58
71764;BME280;59602;52.142;5.408;2023-02-26T08:27:17;102666.66;;;1.89;66.39
71764;BME280;59602;52.142;5.408;2023-02-26T08:29:44;102666.63;;;1.94;66.18
71764;BME280;59602;52.142;5.408;2023-02-26T08:32:12;102673.59;;;1.95;66.08
71764;BME280;59602;52.142;5.408;2023-02-26T08:34:41;102672.25;;;1.98;66.01
71764;BME280;59602;52.142;5.408;2023-02-26T08:37:08;102682.72;;;1.99;66.15
71764;BME280;59602;52.142;5.408;2023-02-26T08:39:37;102686.69;;;2.12;67.80
71764;BME280;59602;52.142;5.408;2023-02-26T08:42:05;102674.81;;;2.23;68.06
71764;BME280;59602;52.142;5.408;2023-02-26T08:44:33;102686.88;;;2.26;68.38
71764;BME280;59602;52.142;5.408;2023-02-26T08:46:59;102685.75;;;2.32;68.02
71764;BME280;59602;52.142;5.408;2023-02-26T08:49:27;102691.13;;;2.32;67.20
71764;BME280;59602;52.142;5.408;2023-02-26T08:51:54;102691.38;;;2.36;66.81
71764;BME280;59602;52.142;5.408;2023-02-26T08:54:20;102697.28;;;2.38;66.70
71764;BME280;59602;52.142;5.408;2023-02-26T08:56:47;102696.72;;;2.41;65.09
71764;BME280;59602;52.142;5.408;2023-02-26T08:59:14;102698.88;;;2.39;63.96
71764;BME280;59602;52.142;5.408;2023-02-26T09:01:41;102703.97;;;2.40;62.92
71764;BME280;59602;52.142;5.408;2023-02-26T09:04:09;102702.09;;;2.41;62.98
71764;BME280;59602;52.142;5.408;2023-02-26T09:06:36;102703.13;;;2.45;62.55
71764;BME280;59602;52.142;5.408;2023-02-26T09:09:03;102714.66;;;2.51;62.40
71764;BME280;59602;52.142;5.408;2023-02-26T09:11:29;102713.81;;;2.55;62.69
71764;BME280;59602;52.142;5.408;2023-02-26T09:13:58;102722.94;;;2.59;62.46
71764;BME280;59602;52.142;5.408;2023-02-26T09:16:25;102723.16;;;2.63;61.58
71764;BME280;59602;52.142;5.408;2023-02-26T09:18:52;102734.16;;;2.66;60.85
71764;BME280;59602;52.142;5.408;2023-02-26T09:21:19;102731.44;;;2.72;60.85
71764;BME280;59602;52.142;5.408;2023-02-26T09:23:46;102723.63;;;2.75;60.98
71764;BME280;59602;52.142;5.408;2023-02-26T09:26:13;102728.44;;;2.78;59.82
71764;BME280;59602;52.142;5.408;2023-02-26T09:28:44;102731.91;;;2.79;59.58
71764;BME280;59602;52.142;5.408;2023-02-26T09:31:11;102730.28;;;2.83;59.88
71764;BME280;59602;52.142;5.408;2023-02-26T09:33:37;102727.84;;;2.86;59.99
71764;BME280;59602;52.142;5.408;2023-02-26T09:36:04;102724.31;;;2.91;60.33
71764;BME280;59602;52.142;5.408;2023-02-26T09:38:31;102733.72;;;2.94;59.33
71764;BME280;59602;52.142;5.408;2023-02-26T09:41:01;102742.53;;;2.99;59.59
71764;BME280;59602;52.142;5.408;2023-02-26T09:50:18;102738.06;;;3.19;59.08
71764;BME280;59602;52.142;5.408;2023-02-26T09:53:00;102736.94;;;3.25;58.82
71764;BME280;59602;52.142;5.408;2023-02-26T09:55:37;102749.53;;;3.29;58.37
71764;BME280;59602;52.142;5.408;2023-02-26T10:11:28;102750.59;;;3.63;58.15
71764;BME280;59602;52.142;5.408;2023-02-26T10:21:24;102767.38;;;3.79;57.70
71764;BME280;59602;52.142;5.408;2023-02-26T10:31:51;102776.31;;;3.98;56.52
71764;BME280;59602;52.142;5.408;2023-02-26T10:34:41;102770.59;;;4.05;55.78
71764;BME280;59602;52.142;5.408;2023-02-26T10:42:56;102780.31;;;4.25;55.70
71764;BME280;59602;52.142;5.408;2023-02-26T10:45:56;102777.19;;;4.36;55.04
71764;BME280;59602;52.142;5.408;2023-02-26T10:54:53;102787.72;;;4.57;53.14
71764;BME280;59602;52.142;5.408;2023-02-26T10:57:34;102785.69;;;4.68;54.25
71764;BME280;59602;52.142;5.408;2023-02-26T11:00:04;102794.19;;;4.75;53.48
71764;BME280;59602;52.142;5.408;2023-02-26T11:02:41;102795.31;;;4.74;52.63
71764;BME280;59602;52.142;5.408;2023-02-26T11:05:16;102792.09;;;4.72;54.29
71764;BME280;59602;52.142;5.408;2023-02-26T11:07:46;102795.81;;;4.76;53.38
71764;BME280;59602;52.142;5.408;2023-02-26T11:10:19;102798.44;;;4.81;53.16
71764;BME280;59602;52.142;5.408;2023-02-26T11:12:46;102798.66;;;4.85;53.77
71764;BME280;59602;52.142;5.408;2023-02-26T11:15:15;102796.91;;;4.94;52.99
71764;BME280;59602;52.142;5.408;2023-02-26T11:17:42;102798.94;;;5.02;53.32
71764;BME280;59602;52.142;5.408;2023-02-26T11:20:21;102799.38;;;5.09;53.20
71764;BME280;59602;52.142;5.408;2023-02-26T11:22:52;102801.69;;;5.16;53.04
71764;BME280;59602;52.142;5.408;2023-02-26T11:25:23;102806.59;;;5.14;51.68
71764;BME280;59602;52.142;5.408;2023-02-26T11:27:57;102800.38;;;5.13;51.99
71764;BME280;59602;52.142;5.408;2023-02-26T11:30:27;102795.81;;;5.14;51.24
71764;BME280;59602;52.142;5.408;2023-02-26T11:32:57;102792.28;;;5.13;51.84
71764;BME280;59602;52.142;5.408;2023-02-26T11:35:25;102806.88;;;5.12;50.98
71764;BME280;59602;52.142;5.408;2023-02-26T11:37:58;102807.97;;;5.11;51.44
71764;BME280;59602;52.142;5.408;2023-02-26T11:40:33;102808.53;;;5.08;50.00
71764;BME280;59602;52.142;5.408;2023-02-26T11:43:04;102809.84;;;5.11;50.81
71764;BME280;59602;52.142;5.408;2023-02-26T11:45:35;102808.19;;;5.15;50.68
71764;BME280;59602;52.142;5.408;2023-02-26T11:48:05;102813.28;;;5.16;50.81
71764;BME280;59602;52.142;5.408;2023-02-26T11:50:43;102804.91;;;5.18;50.88
71764;BME280;59602;52.142;5.408;2023-02-26T11:53:31;102800.72;;;5.26;51.75
71764;BME280;59602;52.142;5.408;2023-02-26T11:56:41;102805.38;;;5.39;51.73
71764;BME280;59602;52.142;5.408;2023-02-26T11:59:19;102801.19;;;5.47;52.05
71764;BME280;59602;52.142;5.408;2023-02-26T12:01:47;102796.22;;;5.54;51.56
71764;BME280;59602;52.142;5.408;2023-02-26T12:04:21;102809.34;;;5.60;51.69
71764;BME280;59602;52.142;5.408;2023-02-26T12:06:52;102800.13;;;5.61;51.13
71764;BME280;59602;52.142;5.408;2023-02-26T12:09:20;102802.22;;;5.65;50.95
71764;BME280;59602;52.142;5.408;2023-02-26T12:19:29;102803.22;;;5.55;50.81
71764;BME280;59602;52.142;5.408;2023-02-26T12:22:05;102801.13;;;5.52;50.72
71764;BME280;59602;52.142;5.408;2023-02-26T12:30:08;102801.00;;;5.43;51.52
71764;BME280;59602;52.142;5.408;2023-02-26T12:35:36;102792.00;;;5.48;52.01
71764;BME280;59602;52.142;5.408;2023-02-26T12:38:11;102794.34;;;5.54;51.19
71764;BME280;59602;52.142;5.408;2023-02-26T12:40:54;102780.22;;;5.57;51.38
71764;BME280;59602;52.142;5.408;2023-02-26T12:43:36;102791.13;;;5.52;50.09
71764;BME280;59602;52.142;5.408;2023-02-26T13:02:18;102797.84;;;5.69;50.47
71764;BME280;59602;52.142;5.408;2023-02-26T13:05:16;102786.47;;;5.72;51.06
71764;BME280;59602;52.142;5.408;2023-02-26T13:20:57;102785.59;;;5.90;50.00
71764;BME280;59602;52.142;5.408;2023-02-26T13:23:32;102787.69;;;5.93;51.11
71764;BME280;59602;52.142;5.408;2023-02-26T13:26:06;102787.91;;;5.97;50.06
71764;BME280;59602;52.142;5.408;2023-02-26T13:28:38;102785.91;;;6.02;50.76
71764;BME280;59602;52.142;5.408;2023-02-26T13:31:14;102781.91;;;6.00;49.56
71764;BME280;59602;52.142;5.408;2023-02-26T13:33:54;102781.63;;;6.01;50.55
71764;BME280;59602;52.142;5.408;2023-02-26T13:36:24;102782.91;;;6.04;50.70
71764;BME280;59602;52.142;5.408;2023-02-26T13:47:23;102781.47;;;5.93;50.57
71764;BME280;59602;52.142;5.408;2023-02-26T13:52:29;102784.44;;;5.96;49.97
71764;BME280;59602;52.142;5.408;2023-02-26T13:54:57;102781.41;;;5.98;50.19
71764;BME280;59602;52.142;5.408;2023-02-26T13:57:32;102775.22;;;5.97;50.75
71764;BME280;59602;52.142;5.408;2023-02-26T14:00:07;102784.81;;;6.03;50.91
71764;BME280;59602;52.142;5.408;2023-02-26T14:02:47;102774.03;;;6.03;50.15
71764;BME280;59602;52.142;5.408;2023-02-26T14:08:26;102780.13;;;5.95;51.22
71764;BME280;59602;52.142;5.408;2023-02-26T14:10:56;102778.13;;;6.01;50.99
71764;BME280;59602;52.142;5.408;2023-02-26T14:13:37;102778.13;;;6.01;50.88
71764;BME280;59602;52.142;5.408;2023-02-26T14:16:20;102774.13;;;5.98;50.55
71764;BME280;59602;52.142;5.408;2023-02-26T14:21:34;102780.63;;;5.97;50.63
71764;BME280;59602;52.142;5.408;2023-02-26T14:24:12;102789.81;;;5.96;50.57
71764;BME280;59602;52.142;5.408;2023-02-26T14:26:45;102785.50;;;5.95;50.71
71764;BME280;59602;52.142;5.408;2023-02-26T14:29:25;102792.06;;;5.89;50.16
71764;BME280;59602;52.142;5.408;2023-02-26T14:34:28;102786.09;;;5.78;49.40
71764;BME280;59602;52.142;5.408;2023-02-26T14:36:59;102794.97;;;5.79;50.18
71764;BME280;59602;52.142;5.408;2023-02-26T14:39:30;102782.78;;;5.81;49.83
71764;BME280;59602;52.142;5.408;2023-02-26T14:42:05;102784.69;;;5.81;49.56
71764;BME280;59602;52.142;5.408;2023-02-26T14:44:37;102780.06;;;5.81;50.26
71764;BME280;59602;52.142;5.408;2023-02-26T14:47:06;102785.97;;;5.83;49.89
71764;BME280;59602;52.142;5.408;2023-02-26T14:49:38;102783.56;;;5.82;49.87
71764;BME280;59602;52.142;5.408;2023-02-26T14:52:23;102790.09;;;5.81;49.88
71764;BME280;59602;52.142;5.408;2023-02-26T14:55:04;102784.38;;;5.82;50.02
71764;BME280;59602;52.142;5.408;2023-02-26T14:57:55;102785.88;;;5.89;51.57
71764;BME280;59602;52.142;5.408;2023-02-26T15:13:33;102798.38;;;5.85;51.01
71764;BME280;59602;52.142;5.408;2023-02-26T15:21:20;102798.25;;;5.76;50.21
71764;BME280;59602;52.142;5.408;2023-02-26T15:23:52;102799.88;;;5.77;50.41
71764;BME280;59602;52.142;5.408;2023-02-26T15:26:22;102794.47;;;5.77;50.87
71764;BME280;59602;52.142;5.408;2023-02-26T15:28:52;102794.97;;;5.79;50.42
71764;BME280;59602;52.142;5.408;2023-02-26T15:31:28;102795.56;;;5.76;51.30
71764;BME280;59602;52.142;5.408;2023-02-26T15:33:56;102799.97;;;5.72;51.24
71764;BME280;59602;52.142;5.408;2023-02-26T15:36:23;102804.53;;;5.71;51.37
71764;BME280;59602;52.142;5.408;2023-02-26T15:38:57;102800.75;;;5.72;51.63
71764;BME280;59602;52.142;5.408;2023-02-26T15:41:26;102814.25;;;5.72;51.16
71764;BME280;59602;52.142;5.408;2023-02-26T15:43:57;102798.06;;;5.72;51.20
71764;BME280;59602;52.142;5.408;2023-02-26T15:46:28;102805.03;;;5.73;51.39
71764;BME280;59602;52.142;5.408;2023-02-26T15:49:03;102808.06;;;5.72;51.06
71764;BME280;59602;52.142;5.408;2023-02-26T15:51:32;102813.25;;;5.68;51.11
71764;BME280;59602;52.142;5.408;2023-02-26T15:53:59;102811.66;;;5.67;50.48
71764;BME280;59602;52.142;5.408;2023-02-26T15:56:32;102806.84;;;5.64;51.26
71764;BME280;59602;52.142;5.408;2023-02-26T15:59:03;102810.94;;;5.61;50.83